Time;durP1;ratioP1;P1;durP2;ratioP2;P2;SDS_P1;SDS_P2;PMS_P1;PMS_P2;Temp;Humidity;BMP_temperature;BMP_pressure;BME280_temperature;BME280_humidity;BME280_pressure;Samples;Min_cycle;Max_cycle;Signal;HPM_P1;HPM_P2
2024/01/27 00:00:00;;;;;;;54.58;28.95;;;;;;;6.23;70.67;101210.72;5067260;28;20055;-73
2024/01/27 00:02:26;;;;;;;59.35;33.28;;;;;;;6.06;70.82;101186.72;5067474;28;20028;-73
2024/01/27 00:04:51;;;;;;;52.17;32.60;;;;;;;6.18;70.58;101206.56;5066367;28;20044;-74
2024/01/27 00:07:17;;;;;;;64.53;33.13;;;;;;;6.16;70.65;101200.44;5067379;28;20035;-75
2024/01/27 00:09:43;;;;;;;47.20;29.40;;;;;;;6.06;70.48;101208.09;5067539;28;20025;-74
2024/01/27 00:12:08;;;;;;;60.67;30.85;;;;;;;5.60;70.25;101176.72;5067419;28;20037;-74
2024/01/27 00:14:37;;;;;;;55.30;32.50;;;;;;;5.77;70.90;101198.06;5067337;28;20025;-74
2024/01/27 00:17:03;;;;;;;50.67;28.38;;;;;;;5.83;70.78;101219.97;5067268;28;20025;-75
2024/01/27 00:19:28;;;;;;;51.88;29.45;;;;;;;5.75;71.25;101198.13;5067100;28;20028;-75
2024/01/27 00:21:54;;;;;;;50.22;27.67;;;;;;;5.71;71.54;101190.38;5067326;28;20473;-76
2024/01/27 00:24:19;;;;;;;49.13;27.67;;;;;;;5.66;71.33;101181.72;5067144;28;20029;-76
2024/01/27 00:26:45;;;;;;;47.30;27.60;;;;;;;5.80;71.40;101211.25;5067807;28;20500;-75
2024/01/27 00:29:11;;;;;;;46.88;28.25;;;;;;;5.66;71.39;101187.94;5067690;28;20141;-74
2024/01/27 00:31:36;;;;;;;50.60;27.75;;;;;;;5.89;71.64;101208.13;5066768;28;20028;-74
2024/01/27 00:34:02;;;;;;;52.30;29.77;;;;;;;5.82;71.56;101188.00;5067439;28;20071;-75
2024/01/27 00:36:27;;;;;;;42.55;27.17;;;;;;;5.88;71.63;101206.41;5069060;28;20048;-74
2024/01/27 00:38:53;;;;;;;50.15;27.00;;;;;;;5.93;71.68;101218.56;5070916;28;20052;-74
2024/01/27 00:41:18;;;;;;;51.92;29.08;;;;;;;5.70;71.23;101183.31;5066663;28;20123;-76
2024/01/27 00:43:44;;;;;;;55.47;27.15;;;;;;;5.82;71.48;101214.69;5067088;28;20024;-73
2024/01/27 00:46:10;;;;;;;44.55;24.85;;;;;;;5.81;71.85;101213.81;5066980;28;20109;-74
2024/01/27 00:48:35;;;;;;;45.70;26.13;;;;;;;5.79;71.82;101212.19;5066884;28;20488;-78
2024/01/27 00:51:01;;;;;;;47.47;25.58;;;;;;;5.83;71.93;101222.63;5066978;28;20051;-74
2024/01/27 00:53:26;;;;;;;45.25;25.08;;;;;;;5.80;72.16;101219.25;5066773;28;20411;-74
2024/01/27 00:55:52;;;;;;;44.40;25.10;;;;;;;5.83;72.36;101219.09;5067335;28;20090;-75
2024/01/27 00:58:17;;;;;;;42.78;25.35;;;;;;;5.77;72.29;101211.41;5067032;28;20032;-75
2024/01/27 01:00:43;;;;;;;44.00;25.48;;;;;;;5.81;72.17;101213.00;5072013;28;20032;-75
2024/01/27 01:03:08;;;;;;;46.15;26.33;;;;;;;5.54;72.31;101174.38;5067327;28;20472;-74
2024/01/27 01:05:33;;;;;;;38.17;24.40;;;;;;;5.74;72.41;101212.44;5066797;28;20031;-76
2024/01/27 01:07:59;;;;;;;41.28;26.27;;;;;;;5.54;72.67;101198.38;5068017;28;20114;-74
2024/01/27 01:10:24;;;;;;;42.50;25.40;;;;;;;5.65;72.55;101204.03;5070139;28;20107;-75
2024/01/27 01:12:50;;;;;;;43.13;24.52;;;;;;;5.67;72.46;101215.50;5070492;28;20039;-75
2024/01/27 01:15:15;;;;;;;54.28;25.58;;;;;;;5.62;72.52;101207.75;5070385;28;20024;-75
2024/01/27 01:17:41;;;;;;;44.85;25.27;;;;;;;5.57;72.54;101204.44;5070213;28;20062;-74
2024/01/27 01:20:07;;;;;;;45.75;23.00;;;;;;;5.61;72.86;101197.13;5070453;28;20021;-73
2024/01/27 01:22:33;;;;;;;39.25;24.42;;;;;;;5.54;72.98;101195.72;5070812;28;20039;-74
2024/01/27 01:24:58;;;;;;;47.35;25.35;;;;;;;5.59;72.72;101207.91;5070568;28;20103;-73
2024/01/27 01:27:24;;;;;;;42.45;26.42;;;;;;;5.56;72.63;101196.53;5073991;28;20107;-74
2024/01/27 01:29:49;;;;;;;42.10;25.40;;;;;;;5.52;72.37;101193.13;5071674;28;20487;-76
2024/01/27 01:32:15;;;;;;;44.58;27.92;;;;;;;5.47;72.71;101188.03;5069814;28;20025;-75
2024/01/27 01:34:41;;;;;;;43.70;28.35;;;;;;;5.50;72.98;101193.19;5070182;28;20098;-74
2024/01/27 01:37:06;;;;;;;45.22;27.02;;;;;;;5.49;72.97;101186.16;5069698;28;20534;-73
2024/01/27 01:39:32;;;;;;;57.55;29.73;;;;;;;5.48;73.27;101189.75;5069704;28;20404;-73
2024/01/27 01:41:57;;;;;;;51.90;31.63;;;;;;;5.47;73.15;101188.03;5069704;28;20035;-74
2024/01/27 01:44:29;;;;;;;57.25;30.42;;;;;;;5.25;73.03;101184.75;5069556;28;20462;-73
2024/01/27 01:46:54;;;;;;;60.70;31.43;;;;;;;5.25;73.50;101187.41;5070028;28;20046;-73
2024/01/27 01:49:20;;;;;;;55.25;29.65;;;;;;;5.11;73.67;101184.56;5068377;28;20024;-74
2024/01/27 01:51:45;;;;;;;53.03;29.70;;;;;;;5.06;73.66;101181.28;5068161;28;20415;-74
2024/01/27 01:54:11;;;;;;;52.60;29.23;;;;;;;4.85;74.13;101182.34;5069605;28;20033;-73
2024/01/27 01:56:37;;;;;;;66.05;33.35;;;;;;;4.84;74.75;101156.63;5070159;28;20529;-75
2024/01/27 01:59:02;;;;;;;64.28;31.23;;;;;;;4.97;74.24;101176.41;5069698;28;20024;-75
2024/01/27 02:01:28;;;;;;;55.42;29.83;;;;;;;4.84;74.25;101159.28;5070184;28;20028;-72
2024/01/27 02:03:54;;;;;;;68.97;31.23;;;;;;;4.98;74.24;101183.47;5069694;28;20028;-73
2024/01/27 02:06:20;;;;;;;50.58;27.90;;;;;;;4.99;74.54;101182.50;5070869;28;20029;-73
2024/01/27 02:08:45;;;;;;;54.80;28.40;;;;;;;4.93;74.16;101165.03;5070238;28;20487;-73
2024/01/27 02:11:11;;;;;;;52.90;28.83;;;;;;;4.81;74.34;101164.75;5073285;28;20127;-74
2024/01/27 02:13:36;;;;;;;50.05;27.25;;;;;;;4.70;74.06;101156.44;5074793;28;20024;-75
2024/01/27 02:16:02;;;;;;;43.63;28.23;;;;;;;4.73;74.34;101172.28;5072895;28;20222;-73
2024/01/27 02:18:27;;;;;;;52.45;28.10;;;;;;;4.76;74.93;101177.47;5068893;28;20111;-74
2024/01/27 02:20:53;;;;;;;47.20;26.15;;;;;;;4.71;74.77;101152.84;5068936;28;20429;-73
2024/01/27 02:23:18;;;;;;;50.60;28.38;;;;;;;4.58;74.90;101146.38;5069356;28;20043;-74
2024/01/27 02:25:44;;;;;;;46.50;27.33;;;;;;;4.76;75.16;101174.78;5068866;28;20035;-73
2024/01/27 02:28:09;;;;;;;47.85;26.52;;;;;;;4.70;74.64;101170.63;5069080;28;20032;-73
2024/01/27 02:30:35;;;;;;;43.28;26.95;;;;;;;4.78;74.76;101170.25;5068977;28;20040;-73
2024/01/27 02:33:01;;;;;;;47.53;27.55;;;;;;;4.73;74.94;101157.16;5068953;28;20020;-74
2024/01/27 02:35:26;;;;;;;43.22;24.85;;;;;;;4.79;74.48;101153.31;5068704;28;20044;-75
2024/01/27 02:37:52;;;;;;;52.10;26.20;;;;;;;4.83;74.61;101150.41;5068645;28;20025;-73
2024/01/27 02:40:17;;;;;;;54.35;25.95;;;;;;;4.69;74.08;101158.22;5069165;28;20028;-74
2024/01/27 02:42:43;;;;;;;47.17;26.20;;;;;;;4.44;74.49;101132.84;5068894;28;20040;-73
2024/01/27 02:45:10;;;;;;;50.95;25.88;;;;;;;4.54;74.39;101124.34;5068559;28;20032;-72
2024/01/27 02:47:36;;;;;;;40.28;24.02;;;;;;;4.54;74.54;101137.66;5068826;28;20078;-72
2024/01/27 02:50:02;;;;;;;47.30;25.55;;;;;;;4.61;74.55;101139.09;5069343;28;20021;-72
2024/01/27 02:52:27;;;;;;;53.88;25.42;;;;;;;4.60;74.69;101129.38;5074852;28;20028;-72
2024/01/27 02:54:53;;;;;;;46.13;24.45;;;;;;;4.63;75.17;101144.34;5068977;28;20410;-74
2024/01/27 02:57:19;;;;;;;38.30;21.65;;;;;;;4.65;74.86;101135.34;5069288;28;20487;-73
2024/01/27 02:59:47;;;;;;;43.85;21.70;;;;;;;4.68;74.54;101137.84;5068340;28;20078;-73
2024/01/27 03:02:13;;;;;;;42.75;21.67;;;;;;;4.61;74.29;101132.91;5070332;28;21171;-73
2024/01/27 03:04:39;;;;;;;40.83;20.90;;;;;;;4.67;74.61;101140.59;5070828;28;20046;-73
2024/01/27 03:07:04;;;;;;;41.28;20.15;;;;;;;4.54;74.84;101123.47;5068312;28;20544;-75
2024/01/27 03:09:30;;;;;;;34.20;20.88;;;;;;;4.62;74.52;101134.63;5068341;28;20094;-73
2024/01/27 03:11:56;;;;;;;43.10;20.60;;;;;;;4.69;74.63;101122.72;5066816;28;20073;-72
2024/01/27 03:14:22;;;;;;;36.97;19.05;;;;;;;4.76;74.41;101135.69;5068440;28;20032;-74
2024/01/27 03:16:47;;;;;;;35.97;19.50;;;;;;;4.71;73.79;101115.56;5068096;28;20032;-74
2024/01/27 03:19:13;;;;;;;36.05;20.40;;;;;;;4.71;73.57;101121.72;5067750;28;20102;-73
2024/01/27 03:21:38;;;;;;;43.00;18.63;;;;;;;4.62;73.59;101110.63;5068129;28;20020;-74
2024/01/27 03:24:04;;;;;;;34.33;17.40;;;;;;;4.87;73.72;101137.81;5062522;28;20028;-76
2024/01/27 03:26:30;;;;;;;29.48;18.05;;;;;;;4.78;73.39;101138.25;5065314;28;20044;-75
2024/01/27 03:28:55;;;;;;;41.75;19.60;;;;;;;4.82;73.37;101142.50;5067783;28;20025;-75
2024/01/27 03:31:21;;;;;;;41.47;19.75;;;;;;;4.54;73.16;101129.69;5066965;28;20020;-76
2024/01/27 03:33:47;;;;;;;36.45;19.90;;;;;;;4.52;73.47;101136.91;5066994;28;20032;-75
2024/01/27 03:36:13;;;;;;;37.83;19.88;;;;;;;4.51;73.08;101139.63;5067678;28;20406;-75
2024/01/27 03:38:40;;;;;;;38.63;17.73;;;;;;;4.45;73.21;101123.94;5067601;28;20029;-77
2024/01/27 03:41:06;;;;;;;30.13;19.88;;;;;;;4.40;73.71;101125.00;5067451;28;20399;-75
2024/01/27 03:43:33;;;;;;;42.97;20.25;;;;;;;4.51;73.86;101137.81;5067430;28;20028;-74
2024/01/27 03:45:59;;;;;;;32.33;18.80;;;;;;;4.43;73.54;101128.47;5068340;28;20064;-76
2024/01/27 03:48:24;;;;;;;36.47;19.45;;;;;;;4.50;73.93;101129.88;5067206;28;20515;-75
2024/01/27 03:50:50;;;;;;;40.83;18.33;;;;;;;4.59;74.15;101118.78;5070335;28;20044;-76
2024/01/27 03:53:16;;;;;;;39.15;20.25;;;;;;;4.58;74.07;101117.06;5074583;28;20029;-76
2024/01/27 03:55:41;;;;;;;45.20;18.33;;;;;;;4.69;74.03;101120.06;5067517;28;20032;-75
2024/01/27 03:58:07;;;;;;;35.00;18.33;;;;;;;4.57;73.56;101112.69;5067042;28;20744;-75
2024/01/27 04:00:33;;;;;;;34.97;19.75;;;;;;;4.62;73.67;101123.97;5066963;28;20032;-74
2024/01/27 04:03:02;;;;;;;38.65;19.58;;;;;;;4.78;73.25;101120.47;5066738;28;20429;-76
2024/01/27 04:05:29;;;;;;;40.35;21.35;;;;;;;4.78;73.55;101119.59;5066770;28;20511;-74
2024/01/27 04:07:55;;;;;;;41.25;19.05;;;;;;;4.80;73.22;101128.41;5066920;28;20472;-75
2024/01/27 04:10:21;;;;;;;33.20;19.45;;;;;;;4.90;73.19;101135.00;5066990;28;20119;-75
2024/01/27 04:12:47;;;;;;;38.33;18.08;;;;;;;4.95;72.94;101124.97;5065449;28;20116;-74
2024/01/27 04:15:13;;;;;;;28.77;16.58;;;;;;;5.04;72.96;101118.31;5066842;28;20111;-77
2024/01/27 04:17:39;;;;;;;25.08;16.98;;;;;;;5.13;72.83;101124.06;5066559;28;20024;-75
2024/01/27 04:20:06;;;;;;;23.65;14.63;;;;;;;5.16;72.38;101139.88;5066741;28;20037;-73
2024/01/27 04:22:33;;;;;;;29.38;16.45;;;;;;;4.90;71.90;101142.97;5066698;28;20028;-74
2024/01/27 04:24:58;;;;;;;28.27;16.30;;;;;;;4.89;72.10;101142.13;5066949;28;20067;-74
2024/01/27 04:27:24;;;;;;;31.55;15.98;;;;;;;4.93;72.25;101134.84;5066455;28;20466;-74
2024/01/27 04:29:49;;;;;;;27.58;16.88;;;;;;;5.01;72.14;101140.66;5066698;28;20429;-75
2024/01/27 04:32:15;;;;;;;24.17;14.70;;;;;;;5.06;72.10;101154.63;5067076;28;20074;-74
2024/01/27 04:34:41;;;;;;;27.65;15.70;;;;;;;5.06;72.11;101137.75;5067480;28;21306;-78
2024/01/27 04:37:06;;;;;;;29.80;13.95;;;;;;;5.07;71.53;101151.03;5067136;28;20521;-78
2024/01/27 04:39:32;;;;;;;28.15;15.52;;;;;;;4.94;71.66;101109.91;5071558;28;20047;-78
2024/01/27 04:41:57;;;;;;;26.33;14.10;;;;;;;5.03;71.35;101109.44;5051698;28;20087;-76
2024/01/27 04:44:23;;;;;;;29.95;15.40;;;;;;;5.20;71.47;101135.28;5048702;28;20465;-74
2024/01/27 04:46:48;;;;;;;31.27;15.23;;;;;;;5.07;71.20;101145.69;5050619;28;20025;-74
2024/01/27 04:49:15;;;;;;;31.35;16.45;;;;;;;4.91;71.49;101134.06;5048124;28;20591;-75
2024/01/27 04:51:41;;;;;;;32.85;15.68;;;;;;;4.94;71.71;101131.25;5070538;28;20035;-74
2024/01/27 04:54:07;;;;;;;37.92;17.27;;;;;;;4.89;71.67;101126.13;5070329;28;20020;-78
2024/01/27 04:56:33;;;;;;;42.17;19.20;;;;;;;4.84;71.65;101116.66;5053811;28;20090;-76
2024/01/27 04:58:58;;;;;;;35.17;18.33;;;;;;;4.79;71.83;101113.34;5070514;28;20028;-74
2024/01/27 05:01:24;;;;;;;38.67;20.08;;;;;;;4.83;71.81;101109.59;5067946;28;20238;-77
2024/01/27 05:03:49;;;;;;;29.30;17.00;;;;;;;4.92;71.78;101109.16;5057086;28;20085;-74
2024/01/27 05:06:15;;;;;;;31.95;16.95;;;;;;;4.82;71.93;101075.91;5070231;28;20028;-73
2024/01/27 05:08:40;;;;;;;33.42;18.63;;;;;;;4.81;71.75;101059.03;5063722;28;20517;-78
2024/01/27 05:11:06;;;;;;;36.47;19.10;;;;;;;4.86;71.88;101082.81;5060676;28;20504;-74
2024/01/27 05:13:32;;;;;;;33.58;19.95;;;;;;;4.98;71.77;101091.97;5069640;28;20368;-74
2024/01/27 05:15:58;;;;;;;29.48;17.45;;;;;;;4.94;71.86;101091.25;5069925;28;20028;-75
2024/01/27 05:18:23;;;;;;;31.48;16.38;;;;;;;5.06;71.57;101095.09;5054043;28;21034;-74
2024/01/27 05:20:49;;;;;;;29.92;15.80;;;;;;;5.17;71.59;101087.44;5070457;28;20060;-75
2024/01/27 05:23:14;;;;;;;30.95;17.48;;;;;;;5.20;71.39;101093.44;5070112;28;20028;-73
2024/01/27 05:25:40;;;;;;;28.60;18.50;;;;;;;5.19;71.11;101065.06;5053987;28;20075;-76
2024/01/27 05:28:05;;;;;;;31.55;17.17;;;;;;;5.35;70.65;101081.13;5074557;28;20569;-76
2024/01/27 05:30:31;;;;;;;32.17;17.38;;;;;;;5.41;70.69;101086.16;5056098;28;20102;-78
2024/01/27 05:32:56;;;;;;;32.25;18.70;;;;;;;5.48;70.45;101091.06;5069145;28;20486;-75
2024/01/27 05:35:22;;;;;;;35.25;21.20;;;;;;;5.34;70.35;101066.94;5069435;28;20052;-73
2024/01/27 05:37:48;;;;;;;55.22;31.35;;;;;;;5.54;70.23;101086.34;5053168;28;20044;-74
2024/01/27 05:40:14;;;;;;;111.78;58.50;;;;;;;5.55;70.15;101072.06;5069210;28;20025;-74
2024/01/27 05:42:42;;;;;;;44.20;23.38;;;;;;;5.35;69.64;101023.31;5061897;28;20396;-77
2024/01/27 05:45:10;;;;;;;29.98;17.60;;;;;;;5.73;69.58;101082.59;5060371;28;20658;-74
2024/01/27 05:47:35;;;;;;;35.08;20.85;;;;;;;5.73;69.29;101081.75;5069363;28;20105;-75
2024/01/27 05:50:01;;;;;;;35.08;20.50;;;;;;;5.71;68.95;101079.16;5058421;28;20028;-77
2024/01/27 05:52:26;;;;;;;41.00;24.45;;;;;;;5.78;68.80;101082.38;5064166;28;20377;-77
2024/01/27 05:54:52;;;;;;;48.40;25.70;;;;;;;5.79;68.79;101079.59;5068466;28;20470;-73
2024/01/27 05:57:18;;;;;;;47.55;26.52;;;;;;;5.74;68.62;101070.13;5054999;28;20020;-76
2024/01/27 05:59:44;;;;;;;52.08;27.92;;;;;;;5.69;68.35;101061.53;5048300;28;20037;-74
2024/01/27 06:02:09;;;;;;;46.42;27.20;;;;;;;5.75;68.44;101074.53;5069160;28;20483;-75
2024/01/27 06:04:34;;;;;;;79.82;40.13;;;;;;;5.76;68.09;101076.25;5052386;28;20036;-74
2024/01/27 06:07:00;;;;;;;69.60;36.63;;;;;;;5.67;68.34;101072.25;5068883;28;20036;-74
2024/01/27 06:09:25;;;;;;;65.72;35.50;;;;;;;5.75;68.13;101077.19;5068753;28;20035;-73
2024/01/27 06:11:51;;;;;;;55.33;32.55;;;;;;;5.65;68.18;101062.63;5060226;28;20020;-77
2024/01/27 06:14:16;;;;;;;62.97;34.35;;;;;;;5.76;68.35;101065.56;5060957;28;20460;-76
2024/01/27 06:16:42;;;;;;;73.70;37.08;;;;;;;5.64;68.43;101037.75;5069369;28;20381;-73
2024/01/27 06:19:09;;;;;;;62.75;35.97;;;;;;;5.82;68.35;101060.75;5057389;28;20078;-79
2024/01/27 06:21:35;;;;;;;64.32;35.42;;;;;;;5.66;67.89;101038.50;5069932;28;20399;-77
2024/01/27 06:24:00;;;;;;;73.60;39.13;;;;;;;5.74;67.79;101057.66;5068259;28;20025;-74
2024/01/27 06:26:26;;;;;;;71.20;39.80;;;;;;;5.76;67.85;101044.22;5064917;28;20064;-78
2024/01/27 06:28:51;;;;;;;77.95;39.65;;;;;;;5.75;68.16;101054.03;5056171;28;20032;-77
2024/01/27 06:31:17;;;;;;;71.35;41.75;;;;;;;5.70;68.31;101052.56;5068836;28;20380;-76
2024/01/27 06:33:43;;;;;;;74.20;41.70;;;;;;;5.70;68.38;101044.53;5057398;28;20680;-76
2024/01/27 06:36:09;;;;;;;70.47;38.97;;;;;;;5.62;68.61;101047.66;5070039;28;20132;-74
2024/01/27 06:38:37;;;;;;;68.65;39.65;;;;;;;5.61;68.51;101055.72;5068187;28;20020;-74
2024/01/27 06:41:03;;;;;;;70.57;38.03;;;;;;;5.55;68.69;101050.72;5053177;28;20032;-73
2024/01/27 06:43:29;;;;;;;60.30;32.22;;;;;;;5.56;68.65;101061.31;5067653;28;20040;-76
2024/01/27 06:45:57;;;;;;;48.92;29.52;;;;;;;5.58;68.95;101061.22;5068195;28;20028;-75
2024/01/27 06:48:25;;;;;;;45.03;26.17;;;;;;;5.53;69.26;101052.63;5052155;28;20140;-74
2024/01/27 06:50:50;;;;;;;39.22;23.63;;;;;;;5.61;69.37;101050.38;5082224;28;20191;-74
2024/01/27 06:53:16;;;;;;;40.03;23.30;;;;;;;5.58;69.35;101050.56;5067696;28;20107;-74
2024/01/27 06:55:42;;;;;;;44.17;24.98;;;;;;;5.57;69.68;101031.00;5053071;28;20047;-74
2024/01/27 06:58:07;;;;;;;40.15;22.20;;;;;;;5.73;69.95;101047.06;5068497;28;20021;-74
2024/01/27 07:00:33;;;;;;;42.13;20.42;;;;;;;5.81;69.48;101037.66;5062865;28;20025;-75
2024/01/27 07:02:58;;;;;;;37.00;18.83;;;;;;;6.02;69.46;101035.66;5060232;28;20119;-76
2024/01/27 07:05:24;;;;;;;28.27;16.92;;;;;;;6.07;68.96;101030.94;5074905;28;20029;-73
2024/01/27 07:07:50;;;;;;;29.70;15.82;;;;;;;6.32;68.69;101038.41;5070470;28;20146;-74
2024/01/27 07:10:15;;;;;;;29.90;15.18;;;;;;;6.38;68.31;101032.72;5067845;28;20128;-73
2024/01/27 07:12:41;;;;;;;23.55;13.90;;;;;;;6.57;67.86;101039.56;5085139;28;20162;-73
2024/01/27 07:15:06;;;;;;;27.20;13.30;;;;;;;6.70;67.25;101036.16;5084908;28;20042;-74
2024/01/27 07:17:32;;;;;;;25.52;12.13;;;;;;;6.87;66.94;101038.72;5068484;28;20111;-74
2024/01/27 07:19:58;;;;;;;24.55;13.20;;;;;;;6.88;66.46;101032.44;5084861;28;20068;-76
2024/01/27 07:22:26;;;;;;;30.88;14.60;;;;;;;6.95;66.14;101045.31;5084772;28;20043;-75
2024/01/27 07:24:52;;;;;;;37.00;15.75;;;;;;;6.97;65.72;101037.22;5067460;28;20134;-78
2024/01/27 07:27:18;;;;;;;36.15;17.15;;;;;;;6.90;65.69;101020.69;5084528;28;20166;-75
2024/01/27 07:29:44;;;;;;;45.72;17.45;;;;;;;7.05;64.99;101051.84;5084633;28;20044;-75
2024/01/27 07:32:13;;;;;;;36.45;16.17;;;;;;;7.15;64.92;101057.50;5072318;28;20101;-79
2024/01/27 07:34:43;;;;;;;27.13;16.40;;;;;;;7.16;65.03;101061.03;5081884;28;20499;-73
2024/01/27 07:37:09;;;;;;;37.22;19.40;;;;;;;7.05;64.35;101051.84;5084999;28;20045;-75
2024/01/27 07:39:35;;;;;;;36.25;18.73;;;;;;;7.13;64.75;101054.91;5069062;28;20579;-75
2024/01/27 07:42:00;;;;;;;39.60;18.85;;;;;;;7.19;65.14;101051.00;5070565;28;20200;-74
2024/01/27 07:44:27;;;;;;;45.58;19.88;;;;;;;7.26;64.80;101049.69;5067117;28;20083;-73
2024/01/27 07:46:53;;;;;;;29.10;17.67;;;;;;;7.33;64.99;101048.38;5054068;28;20054;-74
2024/01/27 07:49:18;;;;;;;33.92;20.10;;;;;;;7.32;64.82;101048.44;5067078;28;20496;-73
2024/01/27 07:51:45;;;;;;;34.28;20.25;;;;;;;7.45;64.26;101044.06;5068225;28;20043;-74
2024/01/27 07:54:10;;;;;;;37.30;21.10;;;;;;;7.55;64.50;101054.09;5054129;28;20041;-76
2024/01/27 07:56:37;;;;;;;42.47;23.25;;;;;;;7.67;64.55;101050.66;5068589;28;20017;-77
2024/01/27 07:59:02;;;;;;;39.95;22.42;;;;;;;7.70;64.09;101043.41;5067200;28;20548;-76
2024/01/27 08:01:28;;;;;;;37.50;22.77;;;;;;;7.76;63.78;101040.34;5050541;28;20103;-78
2024/01/27 08:03:53;;;;;;;49.85;21.13;;;;;;;7.94;64.04;101044.53;5067177;28;20040;-73
2024/01/27 08:06:26;;;;;;;35.83;21.63;;;;;;;7.97;63.49;101041.66;5064781;28;20439;-75
2024/01/27 08:08:52;;;;;;;58.38;23.27;;;;;;;7.89;63.48;101006.47;5051431;28;20053;-74
2024/01/27 08:11:17;;;;;;;38.05;19.67;;;;;;;7.94;62.48;101010.56;5067189;28;20109;-73
2024/01/27 08:13:43;;;;;;;50.72;23.98;;;;;;;8.17;62.47;101038.53;5067301;28;20067;-75
2024/01/27 08:16:12;;;;;;;53.75;26.17;;;;;;;8.21;62.44;101029.34;5051669;28;20040;-76
2024/01/27 08:18:38;;;;;;;59.70;29.80;;;;;;;8.28;62.24;101035.22;5071591;28;20086;-75
2024/01/27 08:21:04;;;;;;;64.53;31.08;;;;;;;8.31;62.23;101027.84;5072851;28;20411;-74
2024/01/27 08:23:30;;;;;;;59.50;29.17;;;;;;;8.29;61.91;101021.69;5058670;28;20032;-76
2024/01/27 08:25:55;;;;;;;61.22;31.52;;;;;;;8.38;61.37;101030.97;5071885;28;20059;-78
2024/01/27 08:28:22;;;;;;;79.50;32.30;;;;;;;8.35;61.73;101031.16;5071252;28;20040;-80
2024/01/27 08:30:47;;;;;;;61.47;32.45;;;;;;;8.35;61.37;101032.00;5058812;28;20042;-75
2024/01/27 08:33:13;;;;;;;59.65;33.13;;;;;;;8.43;61.60;101029.69;5070941;28;20024;-74
2024/01/27 08:35:38;;;;;;;62.25;30.63;;;;;;;8.43;61.74;101024.34;5066059;28;20045;-78
2024/01/27 08:38:05;;;;;;;61.72;33.67;;;;;;;8.48;61.45;101022.19;5062397;28;20823;-75
2024/01/27 08:40:31;;;;;;;56.80;31.33;;;;;;;8.47;60.98;101022.31;5076312;28;20040;-75
2024/01/27 08:42:57;;;;;;;53.05;30.38;;;;;;;8.42;60.65;101019.94;5083699;28;20270;-78
2024/01/27 08:45:23;;;;;;;61.33;32.83;;;;;;;8.43;60.92;101032.38;5070082;28;20034;-78
2024/01/27 08:47:49;;;;;;;64.70;32.10;;;;;;;8.38;60.97;101030.97;5070521;28;20123;-74
2024/01/27 08:50:14;;;;;;;57.70;30.05;;;;;;;8.36;60.94;101043.59;5071085;28;20051;-75
2024/01/27 08:52:40;;;;;;;50.92;28.85;;;;;;;8.27;60.78;101036.13;5053948;28;20036;-75
2024/01/27 08:55:06;;;;;;;58.53;28.33;;;;;;;8.05;60.86;101009.88;5070860;28;20487;-73
2024/01/27 08:57:31;;;;;;;55.55;26.83;;;;;;;8.22;61.38;101037.28;5070657;28;20094;-73
2024/01/27 08:59:57;;;;;;;76.40;30.63;;;;;;;8.25;61.53;101020.16;5054357;28;20459;-75
2024/01/27 09:02:23;;;;;;;71.70;29.67;;;;;;;8.34;61.34;101027.63;5069621;28;20032;-76
2024/01/27 09:04:48;;;;;;;65.75;28.60;;;;;;;8.24;60.80;101002.34;5068938;28;20037;-77
2024/01/27 09:07:14;;;;;;;66.32;23.83;;;;;;;8.38;61.01;101005.00;5070033;28;20940;-77
2024/01/27 09:09:39;;;;;;;53.28;21.55;;;;;;;8.59;60.71;101027.69;5070743;28;20162;-77
2024/01/27 09:12:05;;;;;;;84.32;23.30;;;;;;;8.60;60.35;101004.44;5070368;28;20024;-77
2024/01/27 09:14:30;;;;;;;95.75;25.50;;;;;;;8.85;59.75;101009.00;5070812;28;20032;-75
2024/01/27 09:16:56;;;;;;;58.38;22.33;;;;;;;8.90;59.45;101004.19;5070367;28;20120;-80
2024/01/27 09:19:21;;;;;;;57.13;21.30;;;;;;;8.95;59.03;100999.38;5087766;28;20039;-75
2024/01/27 09:21:47;;;;;;;45.55;18.50;;;;;;;9.04;58.43;100996.06;5088046;28;20159;-75
2024/01/27 09:24:13;;;;;;;45.05;19.85;;;;;;;9.17;58.66;101004.97;5088632;28;20083;-77
2024/01/27 09:26:38;;;;;;;51.22;20.23;;;;;;;9.20;58.84;100980.63;5088019;28;20438;-75
2024/01/27 09:29:04;;;;;;;47.72;21.05;;;;;;;9.41;58.10;100980.91;5092861;28;20163;-75
2024/01/27 09:31:30;;;;;;;48.58;19.80;;;;;;;9.50;57.36;100996.38;5093474;28;20028;-75
2024/01/27 09:33:55;;;;;;;48.13;19.10;;;;;;;9.59;56.45;100993.91;5087162;28;20040;-75
2024/01/27 09:36:22;;;;;;;84.65;21.67;;;;;;;9.43;56.36;100984.34;5087698;28;20105;-75
2024/01/27 09:38:47;;;;;;;52.83;19.17;;;;;;;9.67;56.33;101014.81;5087456;28;20040;-78
2024/01/27 09:41:14;;;;;;;50.30;20.25;;;;;;;9.72;56.43;101020.75;5056747;28;20189;-75
2024/01/27 09:43:47;;;;;;;39.92;19.55;;;;;;;9.73;55.79;101019.75;5087285;28;20042;-77
2024/01/27 09:46:16;;;;;;;52.72;20.38;;;;;;;9.66;55.87;101010.44;5087182;28;20039;-75
2024/01/27 09:48:42;;;;;;;49.63;19.75;;;;;;;9.73;55.67;101019.75;5085871;28;20153;-77
2024/01/27 09:51:09;;;;;;;50.53;20.30;;;;;;;9.75;55.62;101017.81;5072538;28;20127;-75
2024/01/27 09:53:35;;;;;;;47.53;19.13;;;;;;;9.76;55.67;101015.00;5066278;28;20044;-75
2024/01/27 09:56:04;;;;;;;45.15;18.70;;;;;;;9.88;55.17;101012.44;5069157;28;20109;-75
2024/01/27 09:58:30;;;;;;;55.10;20.05;;;;;;;9.96;55.40;101010.03;5050670;28;20549;-76
2024/01/27 10:00:57;;;;;;;50.63;16.70;;;;;;;10.07;54.77;101008.28;5069939;28;20028;-76
2024/01/27 10:03:28;;;;;;;54.95;14.68;;;;;;;10.15;54.59;101008.59;5069721;28;20103;-79
2024/01/27 10:05:55;;;;;;;38.40;13.75;;;;;;;10.19;54.31;101001.16;5076403;28;20082;-77
2024/01/27 10:08:26;;;;;;;36.83;15.40;;;;;;;10.22;54.30;100996.44;5070809;28;20025;-79
2024/01/27 10:10:58;;;;;;;31.65;15.90;;;;;;;10.31;53.62;101000.25;5069978;28;20491;-75
2024/01/27 10:13:26;;;;;;;27.67;14.85;;;;;;;10.39;54.06;101014.00;5054120;28;20089;-74
2024/01/27 10:16:08;;;;;;;39.53;15.13;;;;;;;10.39;53.30;100997.88;5070884;28;20036;-74
2024/01/27 10:18:34;;;;;;;31.08;13.57;;;;;;;10.39;53.47;100992.50;5075920;28;20131;-77
2024/01/27 10:21:00;;;;;;;37.17;14.90;;;;;;;10.41;53.33;100998.63;5056789;28;20043;-77
2024/01/27 10:23:26;;;;;;;41.40;17.85;;;;;;;10.40;53.80;100998.75;5070725;28;20075;-75
2024/01/27 10:25:52;;;;;;;39.92;18.85;;;;;;;10.37;53.81;100975.59;5066278;28;20037;-78
2024/01/27 10:28:18;;;;;;;30.20;17.33;;;;;;;10.41;53.70;100990.56;5035085;28;20110;-76
2024/01/27 10:30:44;;;;;;;50.17;17.35;;;;;;;10.55;54.21;100990.34;5068238;28;20448;-74
2024/01/27 10:33:11;;;;;;;46.63;17.00;;;;;;;10.70;53.72;100991.88;5060613;28;20119;-78
2024/01/27 10:35:36;;;;;;;61.45;16.38;;;;;;;10.62;53.13;100978.16;5058996;28;20049;-74
2024/01/27 10:38:02;;;;;;;36.92;17.42;;;;;;;10.60;52.79;100998.97;5068420;28;20443;-75
2024/01/27 10:40:28;;;;;;;34.40;15.13;;;;;;;10.56;53.41;100981.31;5067665;28;20028;-77
2024/01/27 10:43:07;;;;;;;35.42;13.80;;;;;;;10.40;52.97;100983.44;5051950;28;20037;-73
2024/01/27 10:45:41;;;;;;;43.78;16.58;;;;;;;10.39;53.40;100984.44;5067800;28;20072;-75
2024/01/27 10:48:10;;;;;;;45.03;16.52;;;;;;;10.35;53.27;100969.50;5068070;28;20025;-73
2024/01/27 10:50:38;;;;;;;40.65;16.40;;;;;;;10.43;53.80;100993.97;5052738;28;20024;-73
2024/01/27 10:53:05;;;;;;;36.25;14.50;;;;;;;10.24;53.59;100964.91;5068342;28;20046;-74
2024/01/27 10:55:35;;;;;;;24.50;14.75;;;;;;;10.27;53.98;100979.97;5068348;28;20043;-76
2024/01/27 10:58:02;;;;;;;40.08;14.75;;;;;;;10.23;53.87;100990.09;5055349;28;20036;-74
2024/01/27 11:00:28;;;;;;;37.35;15.52;;;;;;;10.17;54.31;100979.81;5068271;28;20028;-73
2024/01/27 11:02:58;;;;;;;42.88;16.55;;;;;;;10.27;54.39;100993.41;5068112;28;20539;-75
2024/01/27 11:05:24;;;;;;;42.70;15.32;;;;;;;10.25;54.35;100984.59;5062389;28;20025;-78
2024/01/27 11:07:51;;;;;;;32.67;15.10;;;;;;;10.23;54.15;100990.09;5063618;28;20567;-75
2024/01/27 11:10:18;;;;;;;28.92;13.43;;;;;;;10.06;54.45;100985.06;5067646;28;20028;-76